コペンハーゲン の空港の天気 - METARとTAF

コペンハーゲン国際空港 ( EKCH / CPH ) - デンマーク コペンハーゲン
飛行場実況気象(Metar)
観測時間02/05 21:20 CET (02/05 20:20 UTC)
風向・風速北西 1m/s
視程3000m
天気現象もや
全天を覆う雲 雲底高度 90m
気温2℃
湿度93%
気圧1037hPa
METAREKCH 052020Z 31002KT 3000 BR OVC003 02/01 Q1037 BECMG 8000 BKN008
過去の天気等 Google飛行場航空写真 Wunderground天気予報

過去48時間のMETAR

飛行場予報(TAF)
発表時間: 2/05 20:22 CET (2/05 19:22 UTC)
予報対象時間: 5日20時 CET ~ 6日19時 CET
風向・風速南南西 5m/s
視程8000m
全天の8割程度の雲 雲底高度 120m
5日21時 CET ~ 5日23時 CET に徐々に
風向・風速北北東 4m/s
視程4000m
天気現象もや
全天の8割程度の雲 雲底高度 180m
5日23時 CET ~ 6日7時 CET に一時的に
視程10km以上
天気現象運行に影響にある天気現象が終了
全天の8割程度の雲 雲底高度 460m
6日7時 CET ~ 6日9時 CET に徐々に
視程10km以上
天気現象運行に影響にある天気現象が終了
少しの雲 雲底高度 300m
TAF AMD EKCH 051922Z 0519/0618 20010KT 8000 BKN004
BECMG 0520/0522 02008KT 4000 BR BKN006
TEMPO 0522/0606 9999 NSW BKN015
BECMG 0606/0608 9999 NSW FEW010